Time;durP1;ratioP1;P1;durP2;ratioP2;P2;SDS_P1;SDS_P2;PMS_P1;PMS_P2;Temp;Humidity;BMP_temperature;BMP_pressure;BME280_temperature;BME280_humidity;BME280_pressure;Samples;Min_cycle;Max_cycle;Signal;HPM_P1;HPM_P2
2022/01/04 00:01:25;;;;;;;14.35;7.13;;;;;;;8.31;91.44;100164.41;5083506;28;20130;-59
2022/01/04 00:03:51;;;;;;;12.63;7.68;;;;;;;8.32;91.48;100155.16;5078689;28;20089;-58
2022/01/04 00:06:16;;;;;;;12.40;7.30;;;;;;;8.24;91.97;100156.28;5064168;28;20839;-58
2022/01/04 00:08:41;;;;;;;13.60;7.50;;;;;;;8.22;91.48;100147.50;5076178;28;20047;-58
2022/01/04 00:11:14;;;;;;;11.90;7.43;;;;;;;8.26;91.87;100142.38;5084026;28;20103;-58
2022/01/04 00:13:39;;;;;;;14.48;8.90;;;;;;;8.20;92.10;100135.94;5083877;28;20078;-59
2022/01/04 00:16:07;;;;;;;13.30;7.57;;;;;;;8.21;92.00;100142.25;5083336;28;20032;-59
2022/01/04 00:18:32;;;;;;;11.45;6.97;;;;;;;8.18;91.92;100129.88;5084258;28;20079;-59
2022/01/04 00:20:58;;;;;;;10.30;7.50;;;;;;;8.19;91.90;100133.44;5084364;28;20055;-59
2022/01/04 00:23:23;;;;;;;13.00;7.10;;;;;;;8.18;91.83;100129.06;5083584;28;20077;-59
2022/01/04 00:25:49;;;;;;;12.77;7.50;;;;;;;8.15;92.17;100130.34;5083733;28;20032;-58
2022/01/04 00:28:14;;;;;;;15.38;7.93;;;;;;;8.14;91.95;100125.09;5084192;28;20032;-61
2022/01/04 00:30:41;;;;;;;12.15;7.47;;;;;;;8.14;92.01;100109.53;5082856;28;20052;-61
2022/01/04 00:33:08;;;;;;;12.63;8.70;;;;;;;8.11;92.25;100104.53;5083909;28;20123;-61
2022/01/04 00:35:34;;;;;;;13.47;8.33;;;;;;;8.07;92.29;100085.00;5084055;28;20024;-61
2022/01/04 00:38:00;;;;;;;10.95;7.43;;;;;;;8.07;92.21;100084.19;5084192;28;20294;-61
2022/01/04 00:40:26;;;;;;;12.35;8.00;;;;;;;8.10;91.93;100075.50;5083963;28;20389;-61
2022/01/04 00:42:55;;;;;;;12.70;7.90;;;;;;;8.04;92.50;100074.53;5083759;28;20119;-61
2022/01/04 00:45:22;;;;;;;12.32;8.02;;;;;;;8.05;92.37;100061.69;5082416;28;20355;-61
2022/01/04 00:50:18;;;;;;;11.07;7.45;;;;;;;8.01;92.21;100060.50;5083196;28;20028;-61
2022/01/04 00:52:43;;;;;;;11.38;7.53;;;;;;;7.99;92.71;100060.72;5083713;28;20024;-61
2022/01/04 00:55:08;;;;;;;13.77;7.60;;;;;;;8.02;92.31;100062.19;5083612;28;20510;-61
2022/01/04 00:57:34;;;;;;;11.90;7.00;;;;;;;8.00;92.45;100056.09;5083418;28;20017;-61
2022/01/04 00:59:59;;;;;;;10.13;6.55;;;;;;;8.01;92.06;100050.41;5082575;28;20227;-61
2022/01/04 01:02:24;;;;;;;11.18;6.88;;;;;;;8.02;92.20;100048.50;5082719;28;20035;-61
2022/01/04 01:04:50;;;;;;;11.23;7.13;;;;;;;7.99;92.41;100041.59;5082601;28;20081;-61
2022/01/04 01:07:15;;;;;;;11.73;6.68;;;;;;;7.98;92.45;100042.66;5080505;28;20458;-61
2022/01/04 01:09:53;;;;;;;13.40;8.05;;;;;;;7.95;92.16;100034.06;5083619;28;20028;-61
2022/01/04 01:12:19;;;;;;;12.00;8.00;;;;;;;7.93;92.56;100039.78;5082729;28;20101;-61
2022/01/04 01:14:44;;;;;;;12.25;7.75;;;;;;;7.89;92.53;100040.47;5082655;28;20460;-61
2022/01/04 01:17:09;;;;;;;11.70;6.72;;;;;;;7.90;92.74;100042.97;5082185;28;20059;-61
2022/01/04 01:19:37;;;;;;;11.63;6.70;;;;;;;7.90;92.90;100033.94;5083671;28;20024;-61
2022/01/04 01:22:03;;;;;;;9.98;6.32;;;;;;;7.92;92.79;100037.28;5081935;28;20021;-62
2022/01/04 01:24:28;;;;;;;11.20;6.60;;;;;;;7.92;92.37;100040.03;5083340;28;20043;-61
2022/01/04 01:26:53;;;;;;;13.23;8.35;;;;;;;7.90;92.42;100032.03;5083124;28;20043;-61
2022/01/04 01:29:19;;;;;;;11.60;6.80;;;;;;;7.90;92.68;100020.28;5082094;28;20062;-61
2022/01/04 01:31:44;;;;;;;12.25;6.65;;;;;;;7.90;92.42;100023.00;5082533;28;20032;-61
2022/01/04 01:34:09;;;;;;;12.43;7.05;;;;;;;7.93;92.54;100020.66;5083068;28;20043;-61
2022/01/04 01:36:34;;;;;;;11.60;6.40;;;;;;;7.90;92.47;100018.38;5082824;28;20127;-61
2022/01/04 01:39:00;;;;;;;12.60;6.35;;;;;;;7.89;92.36;100021.34;5083606;28;20024;-61
2022/01/04 01:41:25;;;;;;;9.20;6.05;;;;;;;7.86;92.76;100013.63;5081182;28;20030;-61
2022/01/04 01:43:50;;;;;;;13.43;6.43;;;;;;;7.82;92.62;100001.50;5082025;28;20344;-61
2022/01/04 01:46:15;;;;;;;10.50;6.75;;;;;;;7.80;93.01;99999.78;5082728;28;20048;-61
2022/01/04 01:48:42;;;;;;;11.48;6.93;;;;;;;7.80;93.10;99999.78;5083004;28;20055;-61
2022/01/04 01:51:07;;;;;;;9.95;6.82;;;;;;;7.80;92.82;99991.59;5082530;28;20024;-61
2022/01/04 01:53:33;;;;;;;10.40;6.60;;;;;;;7.75;93.19;99991.47;5083448;28;20096;-62
2022/01/04 01:55:58;;;;;;;12.55;6.70;;;;;;;7.75;93.05;99993.38;5086562;28;20028;-61
2022/01/04 01:58:23;;;;;;;13.40;7.57;;;;;;;7.75;93.00;99993.38;5086044;28;20042;-61
2022/01/04 02:00:49;;;;;;;14.00;7.68;;;;;;;7.72;92.98;99996.59;5086147;28;20143;-61
2022/01/04 02:03:14;;;;;;;12.35;7.80;;;;;;;7.71;93.12;99998.50;5086164;28;20020;-61
2022/01/04 02:05:40;;;;;;;12.38;6.90;;;;;;;7.67;93.42;99994.53;5086763;28;20020;-61
2022/01/04 02:08:07;;;;;;;11.73;7.03;;;;;;;7.67;93.58;99983.63;5086284;28;20043;-61
2022/01/04 02:10:33;;;;;;;13.73;7.97;;;;;;;7.69;93.15;99978.75;5085639;28;20115;-61
2022/01/04 02:12:59;;;;;;;12.65;7.35;;;;;;;7.69;93.69;99973.28;5086396;28;20139;-61
2022/01/04 02:15:25;;;;;;;15.02;8.90;;;;;;;7.71;93.34;99967.59;5084707;28;20480;-61
2022/01/04 02:17:52;;;;;;;14.50;7.88;;;;;;;7.71;93.52;99968.44;5086176;28;20028;-61
2022/01/04 02:20:18;;;;;;;13.40;8.70;;;;;;;7.72;93.08;99959.16;5085745;28;20471;-61
2022/01/04 02:22:44;;;;;;;14.80;8.50;;;;;;;7.72;93.28;99950.13;5086592;28;20038;-61
2022/01/04 02:25:10;;;;;;;12.15;8.07;;;;;;;7.72;93.44;99955.59;5079747;28;20714;-61
2022/01/04 02:27:38;;;;;;;13.95;9.02;;;;;;;7.73;93.01;99943.59;5085660;28;20032;-61
2022/01/04 02:30:10;;;;;;;12.23;8.40;;;;;;;7.75;92.94;99953.19;5085357;28;20103;-62
2022/01/04 02:32:35;;;;;;;13.27;8.07;;;;;;;7.73;92.97;99952.59;5085865;28;20036;-61
2022/01/04 02:35:01;;;;;;;11.77;8.43;;;;;;;7.72;92.87;99944.66;5086896;28;20026;-61
2022/01/04 02:37:27;;;;;;;12.85;8.13;;;;;;;7.72;93.10;99937.28;5086524;28;20666;-61
2022/01/04 02:39:54;;;;;;;14.50;8.25;;;;;;;7.72;92.87;99940.03;5085700;28;20016;-61
2022/01/04 02:42:21;;;;;;;11.80;7.65;;;;;;;7.72;92.86;99936.44;5085766;28;20417;-61
2022/01/04 02:44:46;;;;;;;14.20;7.72;;;;;;;7.70;93.23;99939.41;5085596;28;20053;-61
2022/01/04 02:47:12;;;;;;;12.40;6.85;;;;;;;7.70;93.13;99936.66;5085385;28;20032;-61
2022/01/04 02:49:38;;;;;;;10.52;7.00;;;;;;;7.69;92.92;99924.06;5085947;28;20024;-61
2022/01/04 02:52:04;;;;;;;11.90;7.72;;;;;;;7.71;92.58;99918.41;5085072;28;20122;-62
2022/01/04 02:54:29;;;;;;;13.57;7.32;;;;;;;7.68;92.80;99919.69;5086025;28;20273;-61
2022/01/04 02:56:55;;;;;;;11.50;6.97;;;;;;;7.68;92.71;99914.22;5084723;28;20039;-61
2022/01/04 02:59:20;;;;;;;10.88;6.97;;;;;;;7.66;92.87;99918.28;5084768;28;20032;-61
2022/01/04 03:01:45;;;;;;;11.80;7.25;;;;;;;7.68;92.96;99908.75;5085480;28;20042;-61
2022/01/04 03:04:10;;;;;;;13.00;7.13;;;;;;;7.68;92.66;99897.81;5085119;28;20579;-61
2022/01/04 03:06:37;;;;;;;11.95;7.22;;;;;;;7.66;92.69;99897.22;5085961;28;20433;-61
2022/01/04 03:09:04;;;;;;;11.18;7.47;;;;;;;7.64;92.73;99891.16;5085000;28;19916;-63
2022/01/04 03:11:29;;;;;;;13.38;7.45;;;;;;;7.67;92.62;99901.63;5084144;28;20043;-61
2022/01/04 03:13:54;;;;;;;12.02;7.38;;;;;;;7.64;92.73;99904.81;5084561;28;20036;-62
2022/01/04 03:16:20;;;;;;;15.55;7.50;;;;;;;7.62;92.86;99887.84;5084768;28;20413;-61
2022/01/04 03:19:05;;;;;;;14.70;7.72;;;;;;;7.62;92.68;99890.56;5085043;28;20123;-61
2022/01/04 03:21:31;;;;;;;11.95;7.03;;;;;;;7.70;91.99;99876.53;5085371;28;20720;-61
2022/01/04 03:23:57;;;;;;;11.70;7.30;;;;;;;7.62;92.63;99879.63;5084871;28;20032;-61
2022/01/04 03:26:22;;;;;;;14.30;8.07;;;;;;;7.65;92.29;99861.91;5085097;28;20024;-61
2022/01/04 03:28:48;;;;;;;17.20;9.07;;;;;;;7.63;92.25;99855.88;5084242;28;20112;-61
2022/01/04 03:31:13;;;;;;;16.02;8.00;;;;;;;7.59;92.83;99855.50;5083939;28;20036;-61
2022/01/04 03:33:38;;;;;;;14.93;8.88;;;;;;;7.58;92.42;99845.66;5084907;28;20102;-61
2022/01/04 03:36:04;;;;;;;14.65;8.60;;;;;;;7.58;92.76;99842.91;5084911;28;20511;-62
2022/01/04 03:38:30;;;;;;;14.30;8.60;;;;;;;7.60;92.58;99840.75;5073625;28;20024;-61
2022/01/04 03:40:55;;;;;;;15.90;9.10;;;;;;;7.58;92.48;99829.25;5084608;28;20428;-61
2022/01/04 03:43:21;;;;;;;14.45;8.35;;;;;;;7.60;92.26;99818.06;5083559;28;20032;-61
2022/01/04 03:45:47;;;;;;;13.77;8.77;;;;;;;7.53;92.80;99816.28;5084683;28;20040;-61
2022/01/04 03:48:12;;;;;;;17.10;8.68;;;;;;;7.54;92.95;99798.00;5084338;28;20043;-61
2022/01/04 03:50:39;;;;;;;17.75;9.63;;;;;;;7.52;92.69;99795.50;5084936;28;20106;-61
2022/01/04 03:53:04;;;;;;;14.77;8.35;;;;;;;7.54;92.42;99798.00;5084749;28;20028;-61
2022/01/04 03:55:30;;;;;;;17.05;9.07;;;;;;;7.51;93.12;99793.84;5084682;28;20107;-61
2022/01/04 03:57:55;;;;;;;15.80;8.18;;;;;;;7.50;93.03;99796.81;5083618;28;20081;-63
2022/01/04 04:00:20;;;;;;;15.77;8.73;;;;;;;7.54;92.60;99795.25;5084136;28;20266;-61
2022/01/04 04:02:45;;;;;;;15.40;8.68;;;;;;;7.49;92.78;99785.03;5084555;28;20328;-61
2022/01/04 04:05:12;;;;;;;15.82;8.35;;;;;;;7.47;92.90;99780.91;5084234;28;20039;-61
2022/01/04 04:07:38;;;;;;;14.45;8.18;;;;;;;7.46;92.87;99777.34;5084032;28;20048;-61
2022/01/04 04:10:03;;;;;;;15.80;7.97;;;;;;;7.46;93.11;99773.78;5083924;28;20089;-62
2022/01/04 04:12:29;;;;;;;14.50;8.45;;;;;;;7.45;93.12;99774.81;5083266;28;20032;-61
2022/01/04 04:14:55;;;;;;;12.55;7.93;;;;;;;7.46;92.62;99773.78;5084327;28;20028;-61
2022/01/04 04:17:20;;;;;;;14.40;7.82;;;;;;;7.43;93.11;99764.13;5082733;28;20521;-61
2022/01/04 04:19:45;;;;;;;14.25;8.10;;;;;;;7.41;92.96;99758.09;5083692;28;20036;-61
2022/01/04 04:22:10;;;;;;;14.27;7.88;;;;;;;7.43;93.31;99752.38;5084137;28;20478;-61
2022/01/04 04:24:36;;;;;;;13.93;7.47;;;;;;;7.43;93.31;99733.25;5084154;28;20016;-61
2022/01/04 04:27:01;;;;;;;14.07;8.20;;;;;;;7.42;93.43;99743.38;5083343;28;20834;-63
2022/01/04 04:29:26;;;;;;;14.55;7.60;;;;;;;7.43;93.45;99736.00;5083414;28;20043;-61
2022/01/04 04:31:51;;;;;;;12.02;7.55;;;;;;;7.43;93.25;99742.28;5083679;28;20089;-61
2022/01/04 04:34:17;;;;;;;14.60;8.23;;;;;;;7.43;93.09;99744.19;5083799;28;20032;-61
2022/01/04 04:36:42;;;;;;;13.20;8.00;;;;;;;7.43;93.20;99741.47;5083677;28;20104;-61
2022/01/04 04:39:07;;;;;;;17.35;8.25;;;;;;;7.45;92.46;99737.44;5083706;28;20506;-61
2022/01/04 04:41:32;;;;;;;14.63;8.05;;;;;;;7.40;93.28;99734.59;5083190;28;20120;-61
2022/01/04 04:43:58;;;;;;;17.27;9.10;;;;;;;7.41;93.11;99736.25;5083190;28;20031;-61
2022/01/04 04:46:23;;;;;;;17.02;9.18;;;;;;;7.43;93.43;99742.28;5083638;28;20621;-61
2022/01/04 04:48:48;;;;;;;18.13;9.77;;;;;;;7.40;93.15;99740.03;5083569;28;20040;-61
2022/01/04 04:51:14;;;;;;;15.13;9.15;;;;;;;7.41;93.35;99733.50;5083486;28;20032;-61
2022/01/04 04:53:39;;;;;;;15.20;8.88;;;;;;;7.41;93.10;99738.16;5083685;28;20032;-61
2022/01/04 04:56:04;;;;;;;16.27;8.82;;;;;;;7.40;93.22;99731.00;5078692;28;20030;-61
2022/01/04 04:58:29;;;;;;;16.63;9.07;;;;;;;7.39;93.37;99741.09;5083259;28;20020;-61
2022/01/04 05:00:55;;;;;;;15.40;8.25;;;;;;;7.40;93.41;99736.47;5083676;28;20024;-61
2022/01/04 05:03:20;;;;;;;16.80;9.13;;;;;;;7.39;93.05;99732.06;5083067;28;20050;-61
2022/01/04 05:05:45;;;;;;;16.20;9.68;;;;;;;7.40;93.21;99731.84;5083456;28;20033;-61
2022/01/04 05:08:10;;;;;;;17.80;9.88;;;;;;;7.39;93.46;99718.41;5082931;28;20656;-61
2022/01/04 05:10:36;;;;;;;15.40;8.93;;;;;;;7.39;93.25;99719.25;5082904;28;20028;-61
2022/01/04 05:13:01;;;;;;;17.27;8.68;;;;;;;7.41;93.15;99732.69;5081998;28;20100;-63
2022/01/04 05:15:27;;;;;;;16.38;8.93;;;;;;;7.43;92.86;99738.72;5083589;28;20020;-61
2022/01/04 05:17:52;;;;;;;20.52;10.93;;;;;;;7.47;92.09;99726.25;5083340;28;20031;-61
2022/01/04 05:20:17;;;;;;;17.27;10.10;;;;;;;7.39;92.82;99715.69;5082364;28;20024;-61
2022/01/04 05:22:42;;;;;;;18.27;10.50;;;;;;;7.41;92.69;99705.38;5081901;28;20031;-61
2022/01/04 05:25:09;;;;;;;22.10;12.02;;;;;;;7.39;92.66;99705.59;5083302;28;20024;-61
2022/01/04 05:27:34;;;;;;;32.67;14.35;;;;;;;7.34;93.05;99697.28;5082876;28;20044;-61
2022/01/04 05:30:00;;;;;;;34.60;16.60;;;;;;;7.35;93.17;99690.75;5086014;28;20685;-61
2022/01/04 05:32:25;;;;;;;31.73;15.02;;;;;;;7.37;93.37;99706.91;5086457;28;20020;-61
2022/01/04 05:34:50;;;;;;;32.60;13.90;;;;;;;7.38;93.08;99700.38;5087311;28;20124;-61
2022/01/04 05:37:16;;;;;;;31.08;14.52;;;;;;;7.34;93.60;99691.81;5087487;28;20024;-61
2022/01/04 05:39:41;;;;;;;31.10;14.73;;;;;;;7.31;93.79;99686.84;5087146;28;20118;-61
2022/01/04 05:42:08;;;;;;;27.42;13.38;;;;;;;7.31;93.45;99675.91;5086842;28;20025;-61
2022/01/04 05:44:35;;;;;;;23.10;12.38;;;;;;;7.25;94.59;99666.78;5086893;28;20039;-61
2022/01/04 05:47:00;;;;;;;21.42;10.70;;;;;;;7.23;94.91;99665.34;5085993;28;20028;-61
2022/01/04 05:49:25;;;;;;;21.20;10.73;;;;;;;7.26;94.70;99667.59;5086941;28;20035;-61
2022/01/04 05:51:50;;;;;;;19.88;10.35;;;;;;;7.29;94.06;99659.75;5087490;28;20475;-61
2022/01/04 05:54:16;;;;;;;22.08;11.60;;;;;;;7.21;94.57;99654.66;5086680;28;20031;-61
2022/01/04 05:56:41;;;;;;;22.48;11.77;;;;;;;7.24;94.56;99665.09;5084971;28;20028;-61
2022/01/04 05:59:06;;;;;;;23.05;11.10;;;;;;;7.22;94.79;99666.41;5085545;28;20036;-62
2022/01/04 06:01:31;;;;;;;22.10;11.40;;;;;;;7.21;95.22;99673.78;5085833;28;20371;-62
2022/01/04 06:03:57;;;;;;;26.27;12.20;;;;;;;7.22;94.89;99674.59;5087248;28;20030;-61
2022/01/04 06:06:22;;;;;;;26.15;12.88;;;;;;;7.24;94.92;99670.53;5086494;28;20516;-61
2022/01/04 06:08:49;;;;;;;25.27;11.73;;;;;;;7.22;95.15;99663.69;5076715;28;20045;-61
2022/01/04 06:11:31;;;;;;;25.00;11.90;;;;;;;7.21;95.44;99662.03;5072985;28;20033;-61
2022/01/04 06:16:41;;;;;;;22.92;12.13;;;;;;;7.22;95.75;99652.75;5084986;28;20508;-61
2022/01/04 06:19:06;;;;;;;18.92;10.63;;;;;;;7.25;95.30;99653.13;5075547;28;20115;-61
2022/01/04 06:21:31;;;;;;;23.98;11.20;;;;;;;7.21;95.27;99651.09;5084903;28;20419;-63
2022/01/04 06:23:57;;;;;;;23.48;12.02;;;;;;;7.21;95.04;99651.09;5085661;28;20032;-61
2022/01/04 06:26:23;;;;;;;22.55;12.25;;;;;;;7.20;95.37;99653.00;5085360;28;20039;-61
2022/01/04 06:28:49;;;;;;;25.13;13.20;;;;;;;7.17;95.49;99645.28;5085088;28;20035;-61
2022/01/04 06:31:14;;;;;;;23.90;13.15;;;;;;;7.16;96.04;99646.34;5086221;28;20540;-61
2022/01/04 06:33:39;;;;;;;25.48;12.95;;;;;;;7.17;95.72;99653.47;5086180;28;20510;-61
2022/01/04 06:36:05;;;;;;;22.40;12.50;;;;;;;7.23;95.98;99657.16;5086149;28;20026;-62
2022/01/04 06:38:30;;;;;;;27.05;12.48;;;;;;;7.18;96.26;99655.13;5086645;28;20676;-61
2022/01/04 06:40:55;;;;;;;24.75;12.57;;;;;;;7.19;96.14;99648.59;5085306;28;20728;-61
2022/01/04 06:43:20;;;;;;;23.27;12.73;;;;;;;7.14;96.79;99639.44;5084860;28;20031;-61
2022/01/04 06:45:46;;;;;;;24.45;12.60;;;;;;;7.12;97.21;99631.50;5085894;28;20051;-61
2022/01/04 06:48:11;;;;;;;23.25;13.18;;;;;;;7.09;97.33;99648.34;5085506;28;20518;-61
2022/01/04 06:50:36;;;;;;;22.35;12.45;;;;;;;7.14;97.08;99643.00;5085952;28;20024;-61
2022/01/04 06:53:02;;;;;;;25.88;12.45;;;;;;;7.09;97.57;99640.16;5085851;28;20028;-62
2022/01/04 06:55:27;;;;;;;22.00;12.25;;;;;;;7.10;97.00;99630.09;5085958;28;20032;-61
2022/01/04 06:57:52;;;;;;;24.90;12.80;;;;;;;7.07;97.41;99622.38;5084890;28;20041;-62
2022/01/04 07:00:18;;;;;;;27.48;12.93;;;;;;;7.07;97.43;99617.75;5085374;28;20027;-61
2022/01/04 07:02:44;;;;;;;21.85;12.00;;;;;;;7.07;97.85;99614.19;5085727;28;20125;-61
2022/01/04 07:05:09;;;;;;;24.40;12.45;;;;;;;7.08;97.97;99615.84;5085198;28;20123;-62
2022/01/04 07:07:34;;;;;;;25.15;13.40;;;;;;;7.09;97.76;99615.59;5085707;28;20185;-61
2022/01/04 07:09:59;;;;;;;26.52;14.57;;;;;;;7.06;98.10;99607.06;5084775;28;20755;-61
2022/01/04 07:12:25;;;;;;;25.90;13.52;;;;;;;7.08;97.65;99605.75;5083736;28;20031;-63
2022/01/04 07:14:51;;;;;;;25.00;13.68;;;;;;;7.07;97.65;99592.34;5085408;28;20047;-61
2022/01/04 07:17:16;;;;;;;24.73;13.45;;;;;;;7.06;97.63;99602.44;5085131;28;20031;-61
2022/01/04 07:19:41;;;;;;;28.55;14.40;;;;;;;7.08;98.14;99607.66;5085252;28;20096;-61
2022/01/04 07:22:06;;;;;;;28.02;15.20;;;;;;;7.08;97.63;99599.47;5084738;28;20500;-61
2022/01/04 07:24:32;;;;;;;24.80;13.73;;;;;;;7.09;97.26;99593.75;5076602;28;20032;-62
2022/01/04 07:26:57;;;;;;;24.73;13.60;;;;;;;7.08;97.50;99592.09;5084870;28;20494;-61
2022/01/04 07:29:22;;;;;;;28.20;15.60;;;;;;;7.07;97.85;99584.97;5084440;28;20024;-61
2022/01/04 07:31:48;;;;;;;31.88;17.73;;;;;;;7.10;97.33;99578.22;5083810;28;20047;-61
2022/01/04 07:34:14;;;;;;;29.17;15.77;;;;;;;7.12;97.24;99557.78;5084896;28;20030;-60
2022/01/04 07:36:39;;;;;;;30.95;16.08;;;;;;;7.08;97.31;99553.88;5084724;28;20066;-61
2022/01/04 07:39:05;;;;;;;28.08;15.88;;;;;;;7.06;97.41;99547.00;5084727;28;20489;-61
2022/01/04 07:41:30;;;;;;;28.73;15.57;;;;;;;7.07;97.28;99548.66;5083828;28;20024;-61
2022/01/04 07:43:55;;;;;;;29.90;15.75;;;;;;;7.06;97.74;99555.19;5083679;28;20426;-61
2022/01/04 07:46:21;;;;;;;27.50;15.38;;;;;;;7.06;97.93;99561.47;5084645;28;20032;-61
2022/01/04 07:48:47;;;;;;;25.90;15.25;;;;;;;7.07;97.97;99567.78;5083516;28;20028;-61
2022/01/04 07:51:12;;;;;;;29.63;15.55;;;;;;;7.11;97.73;99579.88;5083566;28;20360;-61
2022/01/04 07:53:37;;;;;;;27.90;14.73;;;;;;;7.11;97.60;99577.16;5084720;28;20111;-61
2022/01/04 07:56:03;;;;;;;30.83;16.00;;;;;;;7.10;98.06;99583.69;5084044;28;20024;-62
2022/01/04 07:58:29;;;;;;;28.90;15.80;;;;;;;7.11;97.63;99586.16;5083647;28;20031;-61
2022/01/04 08:00:54;;;;;;;27.08;15.30;;;;;;;7.12;97.96;99592.47;5084180;28;20103;-61
2022/01/04 08:03:20;;;;;;;28.38;16.92;;;;;;;7.13;97.63;99589.47;5083810;28;20102;-61
2022/01/04 08:05:45;;;;;;;28.40;15.50;;;;;;;7.12;97.99;99582.38;5084209;28;20035;-61
2022/01/04 08:08:11;;;;;;;26.77;15.88;;;;;;;7.14;97.65;99582.13;5083825;28;20113;-61
2022/01/04 08:10:36;;;;;;;28.77;16.67;;;;;;;7.13;97.84;99573.09;5083816;28;21423;-61
2022/01/04 08:13:02;;;;;;;27.08;15.23;;;;;;;7.11;97.70;99569.78;5083038;28;20073;-64
2022/01/04 08:15:28;;;;;;;27.73;16.42;;;;;;;7.15;97.51;99557.31;5083023;28;20382;-61
2022/01/04 08:17:53;;;;;;;28.85;17.02;;;;;;;7.12;97.82;99565.97;5084046;28;20027;-61
2022/01/04 08:20:19;;;;;;;30.15;17.45;;;;;;;7.13;97.89;99572.25;5083590;28;20035;-61
2022/01/04 08:22:44;;;;;;;32.47;17.80;;;;;;;7.14;97.87;99574.75;5084217;28;20039;-61
2022/01/04 08:25:10;;;;;;;33.60;18.73;;;;;;;7.15;98.07;99586.53;5083982;28;20031;-61
2022/01/04 08:27:36;;;;;;;34.15;19.33;;;;;;;7.16;97.74;99589.00;5082108;28;20028;-61
2022/01/04 08:30:04;;;;;;;31.67;17.73;;;;;;;7.19;97.55;99588.50;5082303;28;20566;-62
2022/01/04 08:32:30;;;;;;;;;;;;;;;7.26;97.18;99583.78;5084698;28;20020;-61
2022/01/04 08:34:55;;;;;;;30.50;17.23;;;;;;;7.24;97.09;99572.25;5083473;28;19957;-61
2022/01/04 08:37:20;;;;;;;28.50;16.23;;;;;;;7.26;97.00;99591.97;5083223;28;20826;-61
2022/01/04 08:39:46;;;;;;;34.35;17.58;;;;;;;7.27;97.05;99590.88;5077736;28;20016;-61
2022/01/04 08:42:11;;;;;;;35.95;18.42;;;;;;;7.28;96.67;99587.06;5080769;28;20055;-61
2022/01/04 08:44:39;;;;;;;32.53;17.33;;;;;;;7.26;96.68;99593.88;5083884;28;20123;-61
2022/01/04 08:47:11;;;;;;;36.72;18.63;;;;;;;7.26;96.98;99610.25;5083313;28;20024;-62
2022/01/04 08:49:37;;;;;;;36.63;18.70;;;;;;;7.27;97.17;99615.47;5083151;28;20035;-61
2022/01/04 08:52:05;;;;;;;35.30;18.52;;;;;;;7.25;96.85;99603.97;5083632;28;20027;-62
2022/01/04 08:54:30;;;;;;;39.65;20.33;;;;;;;7.28;96.76;99614.38;5083959;28;20498;-61
2022/01/04 08:56:56;;;;;;;41.22;20.48;;;;;;;7.29;97.43;99615.22;5082738;28;20021;-61
2022/01/04 08:59:21;;;;;;;42.33;21.02;;;;;;;7.29;97.12;99618.78;5082634;28;20028;-61
2022/01/04 09:01:47;;;;;;;35.45;18.85;;;;;;;7.33;97.09;99615.56;5083558;28;20062;-61
2022/01/04 09:04:13;;;;;;;36.58;19.48;;;;;;;7.32;97.17;99617.47;5082627;28;20481;-61
2022/01/04 09:06:38;;;;;;;36.42;19.27;;;;;;;7.37;97.16;99620.31;5083497;28;20024;-61
2022/01/04 09:09:04;;;;;;;39.25;19.88;;;;;;;7.39;97.13;99609.97;5083266;28;20048;-62
2022/01/04 09:11:30;;;;;;;36.45;19.75;;;;;;;7.40;96.93;99605.34;5083306;28;20028;-61
2022/01/04 09:14:11;;;;;;;35.70;19.45;;;;;;;7.42;96.65;99605.94;5073049;28;20035;-61
2022/01/04 09:19:21;;;;;;;37.20;20.98;;;;;;;7.44;96.74;99596.44;5082848;28;20447;-61
2022/01/04 09:21:47;;;;;;;35.53;18.55;;;;;;;7.56;95.97;99599.16;5082019;28;20129;-62
2022/01/04 09:24:12;;;;;;;36.45;21.17;;;;;;;7.53;95.67;99591.44;5081291;28;20047;-61
2022/01/04 09:26:37;;;;;;;40.15;21.67;;;;;;;7.50;96.44;99594.63;5082049;28;20036;-61
2022/01/04 09:29:04;;;;;;;40.35;21.88;;;;;;;7.52;96.35;99603.44;5077143;28;20024;-62
2022/01/04 09:31:29;;;;;;;37.97;21.17;;;;;;;7.51;96.43;99623.63;5082655;28;20048;-61
2022/01/04 09:33:56;;;;;;;39.03;21.83;;;;;;;7.51;96.13;99621.72;5083084;28;20063;-61
2022/01/04 09:36:22;;;;;;;43.35;22.92;;;;;;;7.56;95.83;99622.91;5081973;28;20085;-61
2022/01/04 09:38:47;;;;;;;40.13;22.55;;;;;;;7.58;95.99;99624.31;5083158;28;20119;-61
2022/01/04 09:41:12;;;;;;;38.97;21.35;;;;;;;7.57;95.84;99619.94;5081563;28;20040;-61
2022/01/04 09:43:38;;;;;;;46.67;23.80;;;;;;;7.58;95.46;99618.84;5081404;28;20084;-61
2022/01/04 09:46:04;;;;;;;44.30;23.48;;;;;;;7.58;95.35;99618.03;5081748;28;20040;-62
2022/01/04 09:48:29;;;;;;;43.33;23.20;;;;;;;7.63;95.19;99618.97;5082200;28;20036;-61
2022/01/04 09:50:57;;;;;;;41.90;22.88;;;;;;;7.61;95.37;99620.28;5082426;28;20058;-61
2022/01/04 09:53:23;;;;;;;48.35;25.50;;;;;;;7.57;95.88;99622.66;5082646;28;20469;-62
2022/01/04 09:55:51;;;;;;;43.22;24.60;;;;;;;7.59;95.23;99614.22;5068553;28;20021;-61
2022/01/04 09:58:21;;;;;;;44.30;22.77;;;;;;;7.64;95.25;99609.69;5081413;28;20028;-61
2022/01/04 10:00:48;;;;;;;42.63;23.00;;;;;;;7.67;95.01;99601.00;5081181;28;20415;-62
2022/01/04 10:03:22;;;;;;;40.97;22.10;;;;;;;7.69;94.56;99604.31;5082884;28;20101;-62
2022/01/04 10:05:48;;;;;;;44.15;23.23;;;;;;;7.66;95.13;99604.00;5082389;28;20123;-61
2022/01/04 10:08:14;;;;;;;42.53;24.50;;;;;;;7.67;95.61;99611.13;5079794;28;20134;-61
2022/01/04 10:10:41;;;;;;;43.17;24.77;;;;;;;7.70;94.99;99605.97;5081918;28;20036;-61
2022/01/04 10:13:09;;;;;;;48.42;25.85;;;;;;;7.82;93.73;99613.34;5081723;28;20099;-62
2022/01/04 10:15:47;;;;;;;45.40;26.20;;;;;;;7.75;94.69;99608.81;5071113;28;20101;-61
2022/01/04 10:18:12;;;;;;;44.78;24.40;;;;;;;7.77;94.44;99594.94;5067963;28;20518;-61
2022/01/04 10:20:45;;;;;;;42.57;23.57;;;;;;;7.79;94.68;99590.88;5085739;28;20039;-61
2022/01/04 10:23:16;;;;;;;46.78;24.85;;;;;;;7.83;94.34;99583.00;5084602;28;20904;-62
2022/01/04 10:25:43;;;;;;;44.17;22.90;;;;;;;7.84;94.18;99568.28;5080917;28;20078;-61
2022/01/04 10:28:08;;;;;;;42.63;22.65;;;;;;;7.84;94.07;99556.50;5084084;28;20039;-61
2022/01/04 10:30:35;;;;;;;41.33;22.85;;;;;;;7.85;94.00;99564.44;5085151;28;20012;-61
2022/01/04 10:33:02;;;;;;;43.22;22.98;;;;;;;7.88;93.97;99569.44;5086597;28;20039;-61
2022/01/04 10:35:33;;;;;;;40.65;22.77;;;;;;;7.93;93.79;99583.22;5085658;28;20027;-62
2022/01/04 10:38:17;;;;;;;46.78;23.83;;;;;;;7.92;93.78;99576.09;5084748;28;20036;-61
2022/01/04 10:40:48;;;;;;;44.83;24.40;;;;;;;7.91;94.22;99560.78;5072470;28;20486;-61
2022/01/04 10:43:19;;;;;;;42.88;24.52;;;;;;;7.93;94.22;99560.50;5082468;28;20019;-61
2022/01/04 10:45:47;;;;;;;45.67;23.58;;;;;;;7.92;93.60;99569.78;5083939;28;20496;-61
2022/01/04 10:48:16;;;;;;;46.77;23.83;;;;;;;7.93;94.08;99572.28;5084924;28;20067;-61
2022/01/04 10:50:44;;;;;;;39.42;21.80;;;;;;;7.94;93.73;99564.91;5086309;28;20114;-61
2022/01/04 10:53:18;;;;;;;46.35;23.98;;;;;;;7.96;93.74;99557.31;5085315;28;20048;-61
2022/01/04 10:55:46;;;;;;;40.67;23.65;;;;;;;7.94;94.14;99557.53;5083850;28;20032;-61
2022/01/04 10:58:23;;;;;;;51.40;25.60;;;;;;;7.96;94.12;99571.81;5084630;28;20024;-61
2022/01/04 11:00:50;;;;;;;45.30;24.75;;;;;;;7.94;94.39;99578.56;5075980;28;20070;-61
2022/01/04 11:03:23;;;;;;;46.33;24.73;;;;;;;7.98;93.97;99571.53;5072453;28;20016;-61
2022/01/04 11:05:52;;;;;;;43.97;22.25;;;;;;;8.02;93.44;99568.06;5085104;28;20028;-61
2022/01/04 11:08:17;;;;;;;41.55;24.08;;;;;;;7.98;93.24;99564.16;5084919;28;20044;-61
2022/01/04 11:10:43;;;;;;;46.58;23.60;;;;;;;7.94;94.31;99579.41;5084962;28;20028;-61
2022/01/04 11:13:08;;;;;;;48.35;24.70;;;;;;;7.93;93.80;99564.06;5083047;28;20032;-61
2022/01/04 11:15:34;;;;;;;44.50;23.20;;;;;;;7.96;93.87;99576.44;5085399;28;20035;-61
2022/01/04 11:17:59;;;;;;;49.17;26.38;;;;;;;7.86;95.50;99570.78;5084912;28;20036;-61
2022/01/04 11:20:25;;;;;;;47.95;25.02;;;;;;;7.82;95.96;99578.63;5074332;28;20390;-61
2022/01/04 11:22:54;;;;;;;48.00;27.40;;;;;;;7.78;96.90;99569.25;5085526;28;20028;-61
2022/01/04 11:25:21;;;;;;;44.30;23.25;;;;;;;7.75;96.42;99584.22;5084753;28;20030;-61
2022/01/04 11:27:47;;;;;;;33.13;17.05;;;;;;;7.64;95.55;99584.25;5084290;28;20039;-61
2022/01/04 11:30:22;;;;;;;31.17;16.38;;;;;;;7.56;95.31;99588.22;5084415;28;20111;-62
2022/01/04 11:32:59;;;;;;;24.35;13.75;;;;;;;7.46;94.98;99597.03;5071688;28;20046;-61